KBNW/BNW METAR and TAF weather

Enter ICAO airport designator
Station Type Date Time Source
KBNW METAR 2019/12/06 03:55 UTC NOAA

KBNW 060355Z AUTO 34018G25KT 10SM SCT013 00/00 A3005 RMK AO2


Station Type Date Time Source
KBNW Decoded METAR 2019/12/06 03:55 UTC NOAA

Boone Municipal, IA, United States (KBNW) 42-03N 093-51W
Dec 05, 2019 - 10:55 PM EST / 2019.12.06 0355 UTC
Wind: from the NNW (340 degrees) at 21 MPH (18 KT) gusting to 29 MPH (25 KT):0
Visibility: 10 mile(s):0
Sky conditions: partly cloudy
Temperature: 32 F (0 C)
Windchill: 19 F (-7 C):1
Dew Point: 32 F (0 C)
Relative Humidity: 100%
Pressure (altimeter): 30.05 in. Hg (1017 hPa)
ob: KBNW 060355Z AUTO 34018G25KT 10SM SCT013 00/00 A3005 RMK AO2
cycle: 4

Station Type Date Time Source
KBNW TAF UTC NOAA

Error!

Example: see airport list